Date,TemperatureHighF,TemperatureAvgF,TemperatureLowF,DewpointHighF,DewpointAvgF,DewpointLowF,HumidityHigh,HumidityAvg,HumidityLow,PressureMaxIn,PressureMinIn,WindSpeedMaxMPH,WindSpeedAvgMPH,GustSpeedMaxMPH,PrecipitationSumIn
2013-1-18,26.6,22.6,17.6,16.0,13.6,8.0,79,63,53,30.10,29.82,15,10,0,0.00
2013-1-19,49.3,42.3,25.3,32.0,28.0,16.0,61,55,42,29.82,29.23,32,15,0,0.06
2013-1-20,50.2,30.2,21.9,37.0,20.5,8.0,91,64,42,29.75,29.11,38,20,0,0.53
2013-1-21,21.9,19.3,11.5,21.0,13.8,4.0,100,74,58,29.75,29.56,27,12,0,0.00
2013-1-22,11.7,8.3,6.3,14.0,9.2,8.0,100,98,81,29.87,29.59,25,13,0,0.00
2013-1-23,14.2,9.2,6.3,11.0,7.2,0.0,100,88,62,29.92,29.79,16,7,0,0.00
2013-1-24,15.4,10.4,6.4,16.0,7.8,4.0,100,82,70,30.20,29.79,19,7,0,0.00
2013-1-25,17.6,11.7,4.8,16.0,11.2,4.0,100,93,72,30.19,29.77,12,6,10,0.00
2013-1-26,32.1,15.4,-1.6,24.0,12.6,0.0,100,87,48,30.05,29.78,12,2,13,0.07
2013-1-27,32.1,23.0,11.5,21.0,17.4,14.0,100,79,53,30.21,29.99,11,5,14,0.01
2013-1-28,43.1,32.4,23.8,37.0,28.3,18.0,96,83,76,29.99,29.49,19,6,22,0.32
2013-1-29,56.2,40.3,32.4,49.0,35.2,28.0,88,81,74,29.70,29.34,17,6,19,0.55
2013-1-30,67.5,59.9,54.3,57.0,52.5,47.5,84,77,59,29.34,28.72,27,11,37,0.28
2013-1-31,54.9,30.3,21.5,50.0,22.9,14.0,93,73,52,29.38,28.72,46,20,52,0.25
2013-2-1,21.9,19.8,16.8,21.0,14.9,8.0,100,78,62,29.86,29.38,29,13,29,0.00
2013-2-2,20.8,17.8,14.6,21.0,16.6,8.0,100,89,61,29.85,29.64,26,8,26,0.00
2013-2-3,27.9,19.2,12.7,24.0,17.7,14.0,100,92,68,29.65,29.46,19,5,19,0.07
2013-2-4,20.8,16.8,11.2,21.0,15.2,11.0,100,90,72,29.64,29.53,20,9,24,0.00
2013-2-5,32.3,20.4,13.6,24.0,17.1,14.0,100,86,57,29.63,29.49,17,4,17,0.03
2013-2-6,29.2,22.8,13.3,26.0,16.5,8.0,92,74,52,30.04,29.53,26,9,29,0.00
2013-2-7,28.7,23.7,17.4,26.0,18.6,14.0,91,78,65,30.06,29.73,25,10,29,0.00
2013-2-8,31.9,25.3,18.4,29.0,23.1,18.0,99,89,74,29.82,29.45,30,14,35,0.00
2013-2-9,23.4,18.0,12.2,21.0,17.5,14.0,100,94,76,30.09,29.82,19,8,20,0.00
2013-2-10,36.9,21.8,1.1,28.0,16.2,4.0,100,80,39,30.08,29.57,13,4,14,0.00
2013-2-11,50.8,39.2,30.9,43.0,32.4,26.0,88,76,59,29.57,29.22,42,13,43,0.31
2013-2-12,36.1,33.6,31.1,31.0,28.2,26.0,88,80,73,29.61,29.34,30,13,33,0.00
2013-2-13,35.1,29.3,19.0,26.0,23.9,18.0,95,80,65,29.55,29.39,13,5,15,0.00
2013-2-14,40.9,32.0,23.3,35.0,27.4,21.0,92,83,52,29.54,29.38,22,6,24,0.15
2013-2-15,39.1,32.0,24.9,35.0,25.1,16.0,84,74,61,29.73,29.38,31,13,34,0.00
2013-2-16,102.9,23.5,16.2,24.0,19.2,-13.0,100,81,54,29.72,20.61,23,5,23,0.95
2013-2-17,21.9,15.7,10.4,23.0,13.0,4.0,100,86,66,29.88,29.57,28,13,29,0.00
2013-2-18,29.7,22.0,10.8,21.0,14.8,11.0,100,72,52,29.93,29.50,18,8,18,0.00
2013-2-19,44.9,34.3,23.9,39.0,27.4,18.0,89,75,50,29.50,29.17,37,13,41,0.19
2013-2-20,24.1,21.2,18.1,21.0,18.7,16.0,100,88,72,29.73,29.40,32,16,37,0.00
2013-2-21,24.6,19.0,12.2,21.0,16.1,11.0,98,86,72,30.05,29.69,29,11,32,0.00
2013-2-22,36.4,27.3,20.7,32.0,24.7,18.0,95,89,78,30.04,29.61,21,8,22,0.00
2013-2-23,39.6,34.8,27.9,33.0,30.0,24.0,91,82,71,29.61,29.51,20,8,20,0.01
2013-2-24,33.9,31.2,26.9,32.0,28.2,24.0,92,86,78,29.72,29.49,22,10,26,0.00
2013-2-25,35.9,33.7,31.6,32.0,29.4,24.0,90,83,66,29.87,29.72,16,5,16,0.00
2013-2-26,41.5,34.3,25.9,35.0,29.4,24.0,94,82,57,29.88,29.40,24,10,28,1.09
2013-2-27,35.8,33.6,32.2,29.0,28.4,26.0,83,80,77,29.40,29.22,32,7,36,0.60
2013-2-28,37.3,34.2,32.5,33.0,29.4,28.0,89,81,76,29.41,29.17,23,8,23,0.36
2013-3-1,33.4,29.6,25.9,31.0,25.8,21.0,91,85,73,29.61,29.41,22,10,22,0.00
2013-3-2,27.5,24.1,21.2,24.0,21.6,18.0,97,87,69,29.64,29.54,20,10,20,0.00
2013-3-3,25.4,22.6,19.7,24.0,20.3,16.0,98,89,80,29.58,29.52,22,10,24,0.00
2013-3-4,30.5,26.0,22.5,26.0,21.5,18.0,91,82,72,29.72,29.57,26,13,26,0.00
2013-3-5,34.9,27.6,22.7,26.0,24.0,21.0,95,85,60,29.75,29.61,23,8,23,0.00
2013-3-6,38.5,34.8,27.9,35.0,30.1,23.0,90,83,79,29.80,29.60,20,10,25,0.00
2013-3-7,40.7,34.6,30.0,33.0,30.0,24.0,87,82,73,29.94,29.80,13,5,13,0.00
2013-3-8,42.6,36.2,28.1,31.0,27.7,23.0,86,70,50,30.05,29.93,19,7,20,0.00
2013-3-9,45.2,35.2,25.3,38.0,29.8,21.0,84,79,72,30.05,29.82,13,6,14,0.00
2013-3-10,67.1,50.8,36.2,39.0,32.1,26.0,81,52,25,29.82,29.61,19,6,26,0.01
2013-3-11,64.9,54.6,45.6,42.0,34.1,29.0,77,47,30,29.62,29.30,20,7,23,0.05
2013-3-12,48.1,40.4,35.6,39.0,33.7,28.0,81,76,69,29.56,29.36,24,11,28,0.02
2013-3-13,35.7,31.6,23.3,31.0,25.6,11.0,88,77,54,29.64,29.48,29,12,40,0.08
2013-3-14,32.3,26.0,20.0,18.0,13.3,4.0,87,58,31,29.74,29.63,34,15,38,0.00
2013-3-15,41.4,32.8,25.6,35.0,25.4,16.0,85,73,52,29.70,29.38,29,12,34,0.00
2013-3-16,30.6,25.3,19.3,23.0,19.6,14.0,92,76,60,29.66,29.52,19,9,20,0.00
2013-3-17,29.7,25.2,17.3,23.0,17.1,8.0,90,69,39,30.01,29.65,19,7,19,0.00
2013-3-18,35.5,26.8,16.8,28.0,18.9,14.0,92,71,44,30.00,29.30,26,10,33,0.00
2013-3-19,37.7,32.6,24.3,32.0,26.0,18.0,88,75,54,29.50,29.29,36,12,36,0.06
2013-3-20,32.8,27.1,23.4,24.0,20.2,14.0,88,73,54,29.50,29.45,26,12,30,0.00
2013-3-21,30.1,26.0,19.9,26.0,20.1,14.0,90,78,53,29.48,29.36,25,10,25,0.00
2013-3-22,33.9,30.2,26.3,29.0,25.4,21.0,87,81,73,29.59,29.39,23,12,28,0.00
2013-3-23,39.0,34.1,29.8,31.0,26.7,23.0,86,73,56,29.68,29.57,20,10,23,0.00
2013-3-24,39.5,34.1,28.4,29.0,25.6,18.0,86,71,48,29.69,29.39,19,8,20,0.00
2013-3-25,40.4,36.0,33.0,33.0,29.9,26.0,83,77,57,29.41,29.28,26,11,26,0.00
2013-3-26,47.5,39.5,32.6,35.0,29.5,24.0,83,68,42,29.62,29.40,16,7,16,0.00
2013-3-27,45.9,37.4,33.1,36.0,30.8,26.0,83,76,53,29.73,29.59,26,10,28,0.10
2013-3-28,45.6,39.3,34.9,36.0,31.1,26.0,81,72,46,29.86,29.72,17,8,19,0.00
2013-3-29,51.3,42.0,31.8,35.0,30.1,24.0,81,64,37,29.86,29.79,20,8,23,0.00
2013-3-30,51.9,39.6,26.9,35.0,24.8,21.0,78,57,32,29.87,29.68,17,6,20,0.00
2013-3-31,61.3,48.0,39.8,41.0,29.4,23.0,75,50,28,29.68,29.26,28,10,29,0.00
2013-4-1,45.0,35.0,26.6,37.0,24.6,14.0,82,64,42,29.63,29.23,38,15,41,0.11
2013-4-2,36.5,30.1,26.1,28.0,18.7,16.0,83,61,44,29.78,29.61,34,16,38,0.02
2013-4-3,36.3,31.3,26.8,23.0,17.7,11.0,73,56,35,30.04,29.77,26,14,30,0.00
2013-4-4,52.6,37.7,24.8,26.0,17.0,0.0,79,48,12,30.02,29.57,23,9,25,0.00
2013-4-5,41.8,36.6,31.4,32.0,24.3,16.0,79,60,44,29.84,29.54,26,10,27,0.00
2013-4-6,43.9,35.0,21.7,28.0,23.2,18.0,85,62,38,29.97,29.65,19,7,22,0.00
2013-4-7,67.0,53.0,38.6,47.0,33.0,21.0,74,49,29,29.72,29.33,50,15,57,2.50
2013-4-8,51.7,43.0,32.9,38.0,33.6,26.0,77,69,53,29.78,29.40,23,8,25,0.26
2013-4-9,54.6,47.2,42.6,46.0,37.3,33.0,75,68,65,29.78,29.43,28,9,31,0.49
2013-4-10,46.3,41.9,39.2,35.0,30.8,28.0,67,64,61,29.75,29.54,22,9,32,0.56
2013-4-11,40.2,34.8,31.7,33.0,27.3,23.0,83,73,64,29.81,29.58,32,13,37,0.30
2013-4-12,46.1,39.2,33.5,37.0,30.0,24.0,82,69,61,29.59,29.17,38,14,38,1.16
2013-4-13,44.5,42.0,38.1,39.0,36.3,32.0,82,79,66,29.60,29.42,30,12,32,0.00
2013-4-14,46.6,40.4,35.1,35.0,31.1,24.0,84,69,44,29.85,29.60,20,9,23,0.00
2013-4-15,64.3,52.1,38.1,49.0,38.6,28.0,72,60,45,29.82,29.65,17,8,19,0.00
2013-4-16,65.4,57.1,42.1,55.0,44.6,32.0,77,63,48,29.92,29.61,34,11,34,0.11
2013-4-17,54.0,45.3,32.2,41.0,32.9,23.0,80,62,40,30.04,29.89,16,7,21,0.00
2013-4-18,83.3,62.7,41.6,59.5,48.7,31.0,79,62,42,29.90,29.37,28,12,32,0.01
2013-4-19,74.6,59.2,43.0,61.0,47.6,29.0,74,66,53,29.44,29.06,41,15,46,0.17
2013-4-20,43.2,37.3,33.3,35.0,26.3,18.0,77,63,47,30.11,29.43,37,16,38,0.08
2013-4-21,41.2,35.4,25.6,28.0,21.8,11.0,81,57,33,30.37,30.11,19,7,19,0.00
2013-4-22,60.6,45.4,29.3,36.0,27.3,14.0,77,50,25,30.27,29.99,17,8,22,0.00
2013-4-23,57.8,50.3,40.5,43.0,34.8,26.0,73,55,40,29.99,29.59,19,8,21,0.00
2013-4-24,64.9,52.7,38.5,53.5,38.6,26.0,73,59,40,29.71,29.31,29,11,29,0.38
2013-4-25,54.4,43.5,32.7,39.0,29.7,21.0,77,58,33,30.00,29.71,31,9,31,0.07
2013-4-26,55.6,44.1,34.4,37.0,27.0,18.0,77,52,27,30.17,30.00,15,6,17,0.00
2013-4-27,63.1,51.2,35.5,44.0,35.2,28.0,76,56,35,30.11,29.89,15,6,18,0.00
2013-4-28,74.3,60.0,46.0,51.0,41.2,33.0,75,53,24,29.90,29.69,25,7,27,0.03
2013-4-29,62.9,56.4,52.4,54.0,44.9,36.0,73,66,54,29.72,29.66,12,6,15,0.09
2013-4-30,69.8,63.2,56.6,59.5,52.3,40.0,73,68,55,29.90,29.72,17,7,17,0.00
2013-5-1,72.4,60.8,48.9,56.5,47.7,37.0,75,63,38,30.03,29.90,21,6,22,0.00
2013-5-2,70.9,62.4,45.5,53.0,38.7,32.0,72,43,28,30.11,29.96,22,7,24,0.00
2013-5-3,73.7,65.0,52.4,48.0,42.4,38.0,70,45,30,30.00,29.90,25,9,25,0.00
2013-5-4,67.6,60.1,46.9,47.0,40.6,33.0,72,50,30,29.98,29.85,22,8,22,0.00
2013-5-5,71.4,60.5,46.9,50.5,42.6,35.0,70,53,31,29.90,29.80,17,6,17,0.00
2013-5-6,69.7,59.2,46.7,47.0,37.9,29.0,72,48,27,29.86,29.74,19,6,19,0.00
2013-5-7,73.3,59.9,43.5,54.0,42.9,29.0,71,54,40,29.83,29.73,17,4,17,0.00
2013-5-8,73.1,60.4,52.1,59.0,43.6,32.0,70,55,39,29.75,29.65,15,4,17,0.43
2013-5-9,73.1,61.5,54.4,61.0,44.5,33.0,75,54,34,29.66,29.60,13,5,16,0.05
2013-5-10,70.7,60.6,50.3,56.5,41.8,29.0,67,50,36,29.66,29.41,32,6,35,0.12
2013-5-11,62.1,52.1,46.9,46.0,35.9,24.0,72,55,36,29.48,29.37,20,9,23,0.01
2013-5-12,51.9,44.6,38.4,38.0,33.5,26.0,77,65,47,29.57,29.39,32,13,32,0.19
2013-5-13,51.3,44.9,36.6,37.0,31.3,26.0,76,59,38,29.83,29.67,25,12,26,0.00
2013-5-14,59.4,46.7,32.5,43.0,30.8,21.0,77,56,27,29.84,29.62,17,5,17,0.00
2013-5-15,77.8,60.8,49.1,61.0,45.9,32.0,77,59,38,29.62,29.22,32,9,35,0.06
2013-5-16,72.9,60.1,49.5,50.5,41.7,32.0,72,53,27,29.74,29.44,29,9,30,0.00
2013-5-17,65.4,52.8,36.8,48.0,37.7,21.0,73,57,40,29.93,29.74,13,4,14,0.00
2013-5-18,67.2,56.7,42.3,50.0,37.5,23.0,71,49,41,29.95,29.83,23,7,23,0.02
2013-5-19,75.9,64.1,57.2,63.5,50.3,36.0,74,61,38,29.84,29.68,20,6,21,0.00
2013-5-20,81.0,68.7,54.1,68.5,52.1,31.0,70,56,33,29.74,29.58,29,5,34,0.00
2013-5-21,85.5,70.0,59.5,72.0,46.0,28.0,70,44,25,29.69,29.48,18,6,19,0.28
2013-5-22,86.1,69.7,58.8,69.7,44.6,21.0,74,42,17,29.52,29.37,20,5,20,0.00
2013-5-23,72.8,62.2,43.2,60.0,36.6,16.0,66,41,18,29.67,29.41,23,9,23,0.28
2013-5-24,52.2,44.7,39.2,42.0,31.7,16.0,81,61,32,29.95,29.67,25,12,26,0.12
2013-5-25,64.3,48.4,43.2,42.0,36.4,31.0,80,64,33,29.98,29.89,20,10,22,0.00
2013-5-26,61.7,52.8,42.1,38.0,35.2,29.0,82,53,31,29.96,29.88,23,9,25,0.00
2013-5-27,71.7,55.8,40.0,42.0,36.3,26.0,88,54,20,29.98,29.85,15,4,16,0.00
2013-5-28,65.3,58.9,51.2,62.5,52.1,37.0,99,80,45,29.86,29.62,14,5,15,0.74
2013-5-29,80.1,70.1,62.5,66.3,63.8,60.5,100,82,57,29.74,29.58,22,7,25,0.51
2013-5-30,85.7,75.5,66.4,66.3,63.5,60.5,84,68,46,29.84,29.74,22,6,22,0.00
2013-5-31,86.6,77.5,67.9,66.7,63.4,59.0,90,64,42,29.78,29.66,24,8,24,0.02
2013-6-1,85.6,73.8,66.8,70.0,66.3,63.5,99,79,51,29.69,29.51,31,8,32,0.56
2013-6-2,74.8,67.7,54.6,67.5,62.0,48.0,100,83,58,29.64,29.41,25,10,35,0.95
2013-6-3,63.6,55.0,49.7,49.0,43.2,38.0,82,66,43,29.76,29.64,23,10,26,0.00
2013-6-4,67.9,57.6,50.3,47.0,40.4,29.0,85,56,24,29.90,29.76,16,7,17,0.00
2013-6-5,67.5,57.4,46.4,51.0,44.7,37.0,92,65,35,29.96,29.80,19,7,20,0.00
2013-6-6,59.7,55.7,50.7,59.0,51.9,40.0,100,88,50,29.81,29.56,25,9,25,0.96
2013-6-7,58.9,55.0,51.3,58.0,54.9,51.0,100,99,96,29.60,29.55,13,6,14,0.05
2013-6-8,67.3,60.0,54.9,59.0,56.5,54.0,100,89,69,29.79,29.56,17,6,17,0.05
2013-6-9,73.3,64.3,53.4,59.0,54.1,49.0,98,72,47,29.92,29.79,14,6,15,0.00
2013-6-10,70.3,64.2,57.3,68.5,60.5,54.0,100,88,74,29.84,29.41,17,6,19,1.11
2013-6-11,70.8,64.4,58.6,65.0,60.5,54.5,100,88,66,29.59,29.37,22,8,22,0.23
2013-6-12,72.9,64.7,51.9,61.0,55.2,50.0,99,74,48,29.67,29.49,13,5,15,0.00
2013-6-13,65.1,60.9,56.1,60.5,57.9,54.5,100,90,77,29.54,29.27,28,8,29,0.58
2013-6-14,72.6,62.7,52.4,60.0,55.9,50.0,100,80,56,29.74,29.53,19,6,19,0.00
2013-6-15,74.5,63.6,49.1,56.5,50.2,33.0,96,65,27,29.80,29.67,18,6,19,0.00
2013-6-16,77.3,68.3,63.1,67.5,60.5,54.5,98,77,59,29.67,29.43,26,8,28,0.24
2013-6-17,77.7,68.7,61.6,64.0,59.6,54.5,99,74,50,29.67,29.54,20,7,23,0.00
2013-6-18,70.3,62.0,53.3,57.0,51.6,44.0,95,70,43,29.77,29.64,19,8,20,0.00
2013-6-19,68.9,59.6,50.8,54.0,46.2,36.0,98,65,34,29.92,29.76,15,5,16,0.00
2013-6-20,72.8,61.3,44.9,54.0,46.9,37.0,96,63,29,29.99,29.92,13,4,16,0.00
2013-6-21,77.9,67.1,49.7,59.5,51.8,45.0,97,62,35,30.00,29.90,15,5,15,0.00
2013-6-22,84.8,73.3,60.9,71.3,62.6,53.5,96,70,51,29.90,29.73,19,6,22,0.14
2013-6-23,87.2,78.2,69.2,71.3,67.1,60.0,99,72,42,29.80,29.72,19,7,25,0.03
2013-6-24,85.8,79.1,72.9,71.7,66.5,63.0,80,66,49,29.78,29.67,22,8,22,0.00
2013-6-25,82.3,75.3,68.9,72.7,67.4,63.0,97,76,62,29.69,29.54,22,7,22,0.42
2013-6-26,82.9,74.4,67.9,71.0,66.9,62.5,95,78,57,29.58,29.53,16,7,20,0.00
2013-6-27,77.2,70.3,64.2,70.0,66.6,62.0,96,88,75,29.56,29.39,10,3,12,0.00
2013-6-28,71.9,66.3,62.6,68.5,65.4,62.0,100,97,86,29.39,29.26,16,5,16,0.95
2013-6-29,75.8,67.4,61.9,65.0,62.1,58.0,100,85,56,29.45,29.25,16,6,18,0.06
2013-6-30,73.9,67.0,58.3,66.0,61.6,57.5,100,84,59,29.69,29.45,16,5,16,0.00
2013-7-1,67.9,65.7,61.9,64.0,60.5,56.5,95,83,73,29.83,29.68,22,10,23,0.01
2013-7-2,70.8,64.6,60.0,65.5,61.1,56.5,98,89,81,29.84,29.77,22,7,23,0.00
2013-7-3,81.7,71.6,62.6,73.3,67.9,61.5,100,89,70,29.90,29.82,13,4,14,0.01
2013-7-4,82.6,74.9,67.6,72.0,69.1,66.0,100,83,59,29.92,29.85,17,5,17,0.02
2013-7-5,82.0,75.1,69.9,74.0,70.1,66.7,100,85,61,29.88,29.80,19,5,21,0.05
2013-7-6,86.5,75.9,67.4,71.3,68.9,65.0,97,80,57,29.90,29.78,11,4,15,0.00
2013-7-7,80.4,74.8,68.7,73.0,69.0,65.0,100,83,63,29.82,29.68,24,7,25,0.21
2013-7-8,83.5,74.8,69.9,72.3,69.5,66.3,97,84,64,29.80,29.72,22,4,22,0.01
2013-7-9,81.1,73.9,68.9,73.7,70.4,67.0,100,89,67,29.80,29.64,12,3,14,0.02
2013-7-10,85.9,76.0,70.6,74.0,70.8,60.0,100,85,65,29.64,29.45,22,8,26,0.15
2013-7-11,77.6,69.4,59.7,64.0,59.1,55.0,93,71,51,29.78,29.60,18,6,20,0.01
2013-7-12,72.8,67.5,59.7,66.7,63.4,59.0,100,87,72,29.94,29.77,14,4,15,0.00
2013-7-13,78.9,69.9,58.4,69.0,64.5,58.0,100,84,63,30.00,29.92,16,5,17,0.00
2013-7-14,85.1,76.0,64.9,72.7,69.0,64.5,100,80,56,30.05,29.99,13,4,13,0.00
2013-7-15,91.5,79.7,70.2,76.0,69.1,59.0,99,74,35,30.06,30.00,11,3,12,0.00
2013-7-16,91.2,80.0,67.6,74.3,67.7,61.0,97,70,40,30.07,29.98,9,3,9,0.00
2013-7-17,91.8,83.3,75.5,78.0,74.2,71.0,98,76,56,30.00,29.86,9,5,9,0.00
2013-7-18,91.7,82.5,74.4,76.0,73.1,66.0,98,76,47,29.89,29.72,9,5,9,0.00
2013-7-19,89.9,81.3,69.4,76.0,71.6,66.0,96,74,52,29.72,29.47,9,4,9,0.05
2013-7-20,82.9,74.4,69.9,70.0,63.7,54.0,100,73,39,29.68,29.49,9,5,9,1.20
2013-7-21,73.1,68.9,60.1,64.0,59.2,53.0,93,73,55,29.80,29.68,9,4,9,0.00
2013-7-22,76.5,68.1,57.4,64.0,60.3,56.0,99,78,54,29.78,29.56,9,4,9,0.00
2013-7-23,82.6,72.0,62.3,70.0,64.4,54.0,100,79,52,29.56,29.40,9,4,9,0.00
2013-7-24,72.2,63.4,54.4,58.0,51.1,46.0,96,66,43,29.81,29.50,9,3,9,0.00
2013-7-25,73.6,63.0,50.7,63.0,53.1,50.0,100,74,44,29.90,29.81,9,3,9,0.00
2013-7-26,73.3,63.5,49.8,64.0,53.2,49.0,100,73,44,29.90,29.77,9,3,9,0.00
2013-7-27,78.6,67.8,56.6,67.0,61.4,52.0,98,82,54,29.77,29.58,9,4,9,0.13
2013-7-28,73.4,66.5,57.9,66.0,58.4,51.0,99,78,53,29.76,29.55,9,5,9,0.09
2013-7-29,70.3,64.1,57.8,64.0,57.9,52.0,99,82,56,29.91,29.73,9,5,9,0.10
2013-7-30,73.9,66.1,58.1,61.0,58.0,53.0,97,78,53,29.98,29.91,9,4,9,0.00
2013-7-31,77.6,66.9,56.8,66.0,61.9,56.0,100,86,62,29.92,29.70,9,3,9,0.00
2013-8-1,76.9,69.3,62.9,68.0,64.0,56.0,100,85,50,29.70,29.54,19,6,21,0.01
2013-8-2,76.8,67.6,56.7,66.0,60.2,56.0,100,80,48,29.65,29.58,16,6,26,0.23
2013-8-3,75.7,67.7,59.2,64.0,58.2,53.0,100,75,45,29.72,29.60,15,7,24,0.07
2013-8-4,71.4,66.2,62.5,60.0,54.5,47.0,88,68,43,29.85,29.72,20,9,21,0.00
2013-8-5,73.6,64.5,51.6,59.0,53.0,47.0,97,70,39,29.88,29.79,13,5,15,0.00
2013-8-6,77.7,66.6,53.3,62.0,57.4,51.0,98,76,43,29.82,29.72,15,4,15,0.00
2013-8-7,82.9,73.7,66.1,69.0,64.4,60.0,85,74,58,29.74,29.62,18,6,18,0.00
2013-8-8,81.2,73.3,67.6,71.0,68.2,65.0,99,86,64,29.74,29.66,14,4,16,0.05
2013-8-9,77.0,70.5,64.9,70.0,63.1,54.0,99,80,45,29.71,29.65,16,6,16,0.24
2013-8-10,72.2,66.2,54.9,60.0,53.2,47.0,94,65,41,29.88,29.70,15,6,17,0.00
2013-8-11,76.2,64.5,49.9,62.0,53.1,45.0,100,71,38,29.91,29.80,13,4,14,0.00
2013-8-12,78.3,68.5,56.9,68.0,61.2,55.0,98,79,53,29.82,29.62,14,4,17,0.00
2013-8-13,69.3,65.6,59.4,67.0,58.5,47.0,100,80,54,29.66,29.53,28,9,28,0.23
2013-8-14,69.2,63.2,58.2,55.0,50.5,45.0,85,65,43,29.86,29.64,25,10,26,0.00
2013-8-15,73.3,64.0,52.9,56.0,51.9,47.0,93,67,44,29.90,29.84,22,6,22,0.00
2013-8-16,78.8,65.7,52.0,61.0,54.4,48.0,96,71,39,29.98,29.88,14,4,16,0.00
2013-8-17,78.2,66.2,54.0,66.0,58.2,53.0,99,79,46,30.07,29.98,13,4,14,0.00
2013-8-18,79.5,67.2,54.6,65.0,59.2,53.0,99,78,55,30.02,29.88,13,3,13,0.00
2013-8-19,81.2,69.7,59.0,66.0,59.5,48.0,100,75,32,29.89,29.80,15,5,16,0.00
2013-8-20,83.3,72.5,63.2,67.0,63.4,59.0,100,76,48,29.90,29.83,14,6,16,0.00
2013-8-21,85.8,74.5,64.7,67.0,63.8,61.0,96,72,46,29.93,29.79,16,6,20,0.00
2013-8-22,81.4,74.2,67.4,72.0,64.5,53.0,93,74,46,29.80,29.70,17,7,22,0.00
2013-8-23,74.9,65.1,53.3,60.0,54.9,49.0,99,73,41,29.98,29.78,15,4,17,0.00
2013-8-24,76.0,63.0,48.9,64.0,53.8,48.0,100,75,46,30.13,29.98,16,3,16,0.00
2013-8-25,81.9,67.8,49.9,65.0,54.5,48.0,100,67,36,30.09,29.88,16,5,20,0.07
2013-8-26,78.3,71.4,66.4,72.0,68.6,64.0,99,92,76,29.89,29.70,18,7,23,0.18
2013-8-27,82.8,73.2,67.4,75.0,70.2,67.0,100,92,69,29.72,29.65,12,4,12,0.01
2013-8-28,79.1,72.9,66.1,73.0,70.2,64.0,100,93,72,29.75,29.63,15,4,15,0.01
2013-8-29,84.8,72.8,62.9,76.0,67.6,62.0,100,86,58,29.84,29.74,10,2,11,0.01
2013-8-30,82.8,73.7,64.4,73.0,67.6,63.0,100,84,54,29.78,29.51,17,5,17,0.01
2013-8-31,77.7,72.2,66.3,71.0,69.0,65.0,99,90,77,29.63,29.48,16,5,17,0.00
2013-9-1,77.0,70.2,62.3,70.0,67.1,62.0,100,91,74,29.62,29.52,19,5,19,0.01
2013-9-2,79.6,71.1,65.3,73.0,66.4,55.0,100,87,68,29.58,29.47,23,6,24,0.00
2013-9-3,68.6,63.2,58.4,60.0,58.4,56.0,98,86,73,29.72,29.57,23,7,23,0.00
2013-9-4,77.4,66.8,55.6,64.0,57.7,53.0,95,75,48,29.78,29.71,21,7,23,0.01
2013-9-5,64.6,59.6,51.1,59.0,46.5,36.0,98,64,37,30.01,29.78,20,7,20,0.00
2013-9-6,71.5,57.6,41.6,52.0,46.2,40.0,97,69,41,30.05,29.84,15,4,15,0.00
2013-9-7,66.8,61.7,56.7,66.0,58.6,50.0,98,90,75,29.84,29.63,19,6,21,0.04
2013-9-8,69.3,62.5,47.5,67.0,52.5,44.0,98,73,43,29.87,29.63,21,6,23,0.00
2013-9-9,71.3,57.9,43.9,65.0,52.2,43.0,100,84,56,29.90,29.70,13,3,13,0.01
2013-9-10,87.5,78.4,65.3,73.0,69.4,63.0,97,76,56,29.77,29.63,23,8,28,0.01
2013-9-11,87.8,80.2,71.1,73.0,70.7,67.0,92,74,54,29.80,29.68,23,8,25,0.02
2013-9-12,74.8,69.5,63.4,70.0,65.6,56.0,98,89,72,29.74,29.53,20,7,22,0.03
2013-9-13,63.9,56.0,52.1,59.0,49.5,43.0,94,79,69,29.82,29.56,20,9,22,0.05
2013-9-14,64.1,54.4,49.9,50.0,42.0,32.0,94,65,33,29.91,29.80,16,6,18,0.05
2013-9-15,68.9,57.9,48.7,57.0,51.5,45.0,98,81,59,29.90,29.82,20,6,23,0.04
2013-9-16,57.8,51.2,39.9,56.0,47.7,38.0,100,89,63,30.14,29.84,20,5,24,0.07
2013-9-17,62.9,49.1,35.9,50.0,43.0,36.0,100,82,49,30.24,30.03,17,4,18,0.02
2013-9-18,71.6,55.4,41.7,54.0,47.5,40.0,98,78,43,30.03,29.87,13,3,16,0.00
2013-9-19,75.7,61.4,48.0,63.0,56.2,47.0,99,85,55,29.88,29.77,12,4,14,0.00
2013-9-20,82.5,69.7,55.4,69.0,62.7,55.0,100,81,59,29.78,29.50,19,5,20,0.00
2013-9-21,74.5,64.0,56.3,69.0,61.6,47.0,100,93,65,29.52,29.40,19,6,23,0.49
2013-9-22,57.3,54.4,52.5,49.0,44.0,39.0,81,69,54,29.81,29.52,22,9,22,1.08
2013-9-23,59.6,51.6,41.1,47.0,41.8,39.0,96,71,49,29.94,29.81,15,5,16,0.00
2013-9-24,65.8,50.2,37.3,57.0,43.2,37.0,99,80,42,29.91,29.77,13,3,13,0.00
2013-9-25,69.3,53.7,39.6,62.0,46.7,39.0,100,81,44,29.79,29.73,10,2,13,0.00
2013-9-26,69.3,54.0,39.4,61.0,48.0,38.0,99,83,49,29.92,29.76,13,2,16,0.00
2013-9-27,65.5,55.6,44.9,59.0,51.1,44.0,100,87,66,30.04,29.92,18,4,18,0.00
2013-9-28,73.3,56.7,41.3,60.0,52.2,40.0,100,87,55,30.04,29.91,15,4,16,0.00
2013-9-29,76.9,62.3,51.9,60.0,53.8,49.0,97,76,46,29.91,29.76,15,4,17,0.00
2013-9-30,73.9,65.3,56.3,63.0,59.5,54.0,99,83,62,29.77,29.72,19,5,20,0.00
2013-10-1,74.3,65.5,56.3,64.0,60.6,55.0,100,86,57,29.79,29.67,16,5,19,0.00
2013-10-2,75.9,67.6,52.9,63.0,57.7,47.0,92,73,44,29.86,29.68,19,7,20,0.00
2013-10-3,71.7,58.7,43.6,60.0,50.9,43.0,99,78,42,29.90,29.78,11,3,11,0.00
2013-10-4,64.2,62.0,59.1,64.0,60.0,55.0,100,95,84,29.84,29.75,13,4,16,0.14
2013-10-5,63.4,61.2,59.3,60.0,57.6,55.0,97,89,80,29.88,29.78,17,7,18,0.06
2013-10-6,81.4,68.3,59.6,73.0,64.9,56.0,100,90,69,29.78,29.44,16,5,18,0.69
2013-10-7,75.8,61.3,55.0,65.0,53.1,39.0,100,76,46,29.82,29.41,27,9,30,0.20
2013-10-8,65.1,53.8,43.9,52.0,45.1,39.0,99,76,44,30.10,29.82,16,4,19,0.04
2013-10-9,66.1,52.4,38.1,53.0,46.1,38.0,100,82,50,30.15,30.02,15,3,15,0.01
2013-10-10,67.9,51.5,37.9,54.0,45.9,38.0,100,83,55,30.02,29.91,13,3,14,0.00
2013-10-11,66.4,51.9,40.0,59.0,47.6,40.0,100,87,61,29.93,29.89,15,3,16,0.00
2013-10-12,71.6,55.9,39.6,57.0,48.2,40.0,100,78,50,29.94,29.88,17,4,17,0.00
2013-10-13,68.9,62.4,56.7,63.0,54.1,41.0,100,77,46,30.03,29.91,15,4,18,0.06
2013-10-14,62.9,56.1,42.2,58.0,49.0,39.0,99,79,42,30.11,30.03,14,5,19,0.02
2013-10-15,68.7,54.5,38.2,57.0,49.9,38.0,100,86,59,30.06,29.68,15,4,15,0.03
2013-10-16,70.5,63.1,55.9,62.0,57.8,50.0,97,84,69,29.68,29.49,19,8,25,0.02
2013-10-17,63.2,55.6,50.8,54.0,51.3,47.0,100,86,64,29.64,29.45,10,5,12,0.04
2013-10-18,60.2,52.8,44.8,52.0,45.4,38.0,98,78,48,29.65,29.47,26,8,30,0.03
2013-10-19,59.4,51.2,43.7,52.0,47.5,41.0,98,88,68,29.63,29.41,16,6,18,0.00
2013-10-20,56.1,47.1,40.3,47.0,41.9,38.0,99,84,57,29.72,29.51,18,6,20,0.01
2013-10-21,65.2,55.1,45.9,52.0,43.9,38.0,99,69,37,29.71,29.54,22,8,29,0.01
2013-10-22,50.2,45.7,40.1,50.0,35.4,28.0,99,68,44,29.61,29.52,29,9,29,0.01
2013-10-23,48.3,42.4,37.6,43.0,35.5,26.0,95,77,48,29.58,29.46,17,6,17,0.00
2013-10-24,47.4,41.3,35.1,40.0,36.0,32.0,95,82,65,29.77,29.54,24,9,25,0.01
2013-10-25,50.1,42.3,33.9,41.0,37.8,33.0,99,85,58,29.94,29.77,21,6,23,0.00
2013-10-26,46.5,43.6,39.9,43.0,38.5,32.0,96,82,62,29.85,29.51,27,10,35,0.02
2013-10-27,49.5,43.4,37.3,41.0,37.0,32.0,98,79,57,29.79,29.55,20,8,25,0.53
2013-10-28,48.5,42.0,25.3,41.0,31.6,16.0,98,69,32,30.14,29.75,19,6,20,0.02
2013-10-29,48.5,35.7,23.2,36.0,30.3,23.0,100,81,48,30.20,30.03,16,4,19,0.39
2013-10-30,58.2,44.8,38.5,43.0,39.5,36.0,95,83,49,30.03,29.81,11,4,12,0.01
2013-10-31,68.7,57.7,44.6,60.0,53.0,40.0,100,86,65,29.81,29.07,27,8,33,0.42
2013-11-1,64.1,57.2,50.1,60.0,49.4,42.0,96,76,64,29.40,28.86,34,13,49,0.34
2013-11-2,50.3,44.8,38.3,47.0,41.5,31.0,98,88,73,29.78,29.35,19,8,22,0.02
2013-11-3,39.5,32.3,20.9,32.0,23.9,18.0,100,72,47,30.27,29.78,15,6,17,0.00
2013-11-4,43.2,33.4,19.3,31.0,23.2,18.0,100,68,38,30.35,30.14,16,5,19,0.13
2013-11-5,62.4,47.3,27.5,40.0,31.5,21.0,85,55,37,30.15,30.03,16,5,20,0.06
2013-11-6,67.1,57.3,49.7,58.0,44.0,31.0,97,63,44,30.03,29.52,24,8,32,0.35
2013-11-7,56.9,44.7,39.6,55.0,37.5,31.0,94,76,53,29.73,29.51,24,12,27,0.10
2013-11-8,43.3,40.3,37.9,35.0,31.8,28.0,83,70,57,29.95,29.68,25,11,29,1.09
2013-11-9,52.2,43.5,30.3,47.0,33.8,26.0,95,70,42,29.94,29.49,18,6,21,0.09
2013-11-10,50.5,44.8,39.8,42.0,36.9,32.0,88,74,62,29.90,29.49,35,13,40,0.06
2013-11-11,46.7,38.7,32.2,42.0,32.9,18.0,95,80,49,29.90,29.64,28,9,34,0.21
2013-11-12,33.7,30.3,27.5,26.0,21.5,14.0,81,68,46,30.12,29.86,24,10,26,0.00
2013-11-13,40.9,34.1,24.3,31.0,24.4,16.0,89,67,38,30.14,29.76,28,9,37,0.00
2013-11-14,49.7,45.3,39.7,35.0,28.8,23.0,70,52,35,29.81,29.70,32,13,38,0.00
2013-11-15,53.9,47.4,36.8,36.0,31.2,28.0,85,54,38,29.83,29.74,25,7,25,0.00
2013-11-16,59.9,50.3,37.9,43.0,37.7,32.0,84,63,46,29.94,29.70,15,5,16,0.00
2013-11-17,66.3,59.8,53.4,59.0,51.8,43.0,96,76,64,29.70,29.06,26,9,29,0.16
2013-11-18,58.1,46.7,38.2,47.0,35.6,28.0,81,65,52,29.65,29.08,38,16,41,0.53
2013-11-19,38.9,35.5,24.9,33.0,25.8,21.0,94,67,55,30.19,29.65,30,11,37,0.00
2013-11-20,40.1,29.6,18.2,29.0,23.2,18.0,100,77,47,30.29,30.12,21,6,21,0.00
2013-11-21,47.6,37.6,23.0,39.0,29.0,16.0,94,72,45,30.13,29.95,13,4,15,0.07
2013-11-22,47.9,42.5,32.2,47.0,40.4,26.0,100,92,73,29.95,29.71,28,8,34,0.31
2013-11-23,33.8,28.6,17.9,29.0,21.8,8.0,98,74,44,29.96,29.71,36,14,40,0.00
2013-11-24,24.3,21.0,16.4,18.0,14.6,11.0,88,72,50,30.12,29.95,26,13,28,0.00
2013-11-25,37.9,29.3,18.8,32.0,18.5,14.0,92,64,39,30.10,29.76,30,10,35,0.00
2013-11-26,34.9,33.0,32.2,35.0,32.7,31.0,100,98,91,29.83,29.53,15,4,16,0.05
2013-11-27,35.2,31.3,23.4,35.0,27.4,16.0,100,84,63,29.66,29.37,30,11,35,0.09
2013-11-28,28.2,24.2,21.5,23.0,17.3,14.0,99,73,57,30.13,29.66,25,7,27,0.00
2013-11-29,33.1,21.0,9.4,23.0,15.6,8.0,100,79,42,30.45,30.13,11,3,13,0.01
2013-11-30,34.6,26.1,9.9,26.0,18.5,11.0,100,71,50,30.41,29.84,14,6,15,0.00
2013-12-1,42.1,37.4,32.8,36.0,31.1,26.0,95,77,60,29.85,29.62,14,6,15,0.23
2013-12-2,39.3,35.6,28.2,37.0,33.5,28.0,100,91,78,29.62,29.56,10,4,10,0.01
2013-12-3,41.9,32.8,25.2,35.0,29.2,26.0,100,86,56,29.69,29.60,10,3,12,0.00
2013-12-4,45.9,38.8,34.2,40.0,36.2,31.0,97,90,77,29.70,29.52,14,7,16,0.04
2013-12-5,62.8,52.5,38.8,54.0,43.9,31.0,90,73,48,29.74,29.39,26,12,31,0.00
2013-12-6,39.0,34.9,31.5,35.0,26.0,23.0,90,69,61,29.95,29.72,19,9,23,0.00
2013-12-7,31.6,28.4,23.5,24.0,18.6,14.0,84,64,51,30.26,29.94,24,10,26,0.00
2013-12-8,29.9,25.0,18.9,24.0,16.1,11.0,86,67,45,30.27,29.86,18,7,23,0.00
2013-12-9,39.8,32.5,26.5,38.0,29.1,21.0,99,86,69,29.86,29.51,30,12,34,0.03
2013-12-10,28.9,23.6,21.4,23.0,15.0,8.0,99,67,50,29.74,29.61,26,13,33,0.00
2013-12-11,25.4,22.5,20.6,23.0,14.4,8.0,96,69,53,29.97,29.73,29,14,34,0.00
2013-12-12,21.4,17.2,12.2,18.0,11.6,8.0,99,75,58,30.03,29.73,33,12,34,0.00
2013-12-13,26.8,19.1,13.9,23.0,14.5,8.0,98,78,68,30.11,29.71,28,11,31,0.00
2013-12-14,22.4,16.5,12.3,23.0,16.5,8.0,100,96,77,30.13,29.43,25,10,27,0.00
2013-12-15,25.2,21.4,17.9,24.0,20.8,14.0,100,95,73,29.55,29.32,31,10,34,0.00
2013-12-16,21.5,16.1,7.6,18.0,14.5,8.0,100,89,68,29.88,29.54,22,8,29,0.00
2013-12-17,27.1,18.6,4.1,26.0,17.6,4.0,100,93,72,29.85,29.57,18,6,18,0.00
2013-12-18,32.3,28.5,23.5,28.0,23.6,21.0,100,81,66,29.71,29.57,21,9,25,0.00
2013-12-19,42.3,35.8,26.1,33.0,28.4,18.0,92,73,61,29.70,29.52,21,7,26,0.03
2013-12-20,38.9,36.0,33.6,39.0,36.1,32.0,100,99,92,29.67,29.44,12,3,12,0.47
2013-12-21,36.2,34.2,30.9,36.0,34.5,31.0,100,100,99,29.56,29.37,18,7,20,0.70
2013-12-22,38.8,35.9,31.1,38.0,35.4,31.0,100,97,90,29.62,29.31,14,6,17,0.19
2013-12-23,38.9,32.3,26.1,38.0,30.5,18.0,100,92,70,29.94,29.60,17,8,20,0.00
2013-12-24,26.1,19.4,13.4,24.0,18.5,11.0,100,92,74,30.19,29.89,20,10,23,0.00
2013-12-25,22.5,13.8,-1.3,18.0,12.1,0.0,100,88,68,30.22,29.82,14,5,17,0.00
2013-12-26,32.9,27.3,21.1,31.0,22.8,14.0,100,82,67,29.92,29.68,23,8,25,0.02
2013-12-27,34.0,28.1,20.9,31.0,24.4,14.0,100,86,66,29.92,29.69,22,8,22,0.02
2013-12-28,42.8,39.2,33.7,35.0,32.6,29.0,97,77,65,29.72,29.58,27,10,33,0.01
2013-12-29,48.0,41.2,26.4,39.0,30.1,21.0,95,67,40,29.56,29.27,25,9,27,0.00
2013-12-30,26.4,18.9,14.9,21.0,13.9,4.0,93,76,57,29.89,29.45,27,12,27,0.00
2013-12-31,20.8,17.3,15.3,21.0,13.9,8.0,100,80,63,29.89,29.64,35,12,35,0.00
2014-1-1,20.9,16.2,13.9,18.0,13.4,8.0,100,84,61,30.05,29.89,29,10,31,0.00
2014-1-2,15.3,9.9,5.7,16.0,11.0,8.0,100,100,100,29.98,29.68,25,15,31,0.00